sensor_id;sensor_type;location;lat;lon;timestamp;temperature;humidity
14031;DHT22;7090;49.436;8.490;2023-02-15T00:01:54;2.10;99.90
14031;DHT22;7090;49.436;8.490;2023-02-15T00:04:21;2.00;99.90
14031;DHT22;7090;49.436;8.490;2023-02-15T00:06:48;2.00;99.90
14031;DHT22;7090;49.436;8.490;2023-02-15T00:09:13;2.20;99.90
14031;DHT22;7090;49.436;8.490;2023-02-15T00:11:39;2.10;99.90
14031;DHT22;7090;49.436;8.490;2023-02-15T00:14:17;1.90;99.90
14031;DHT22;7090;49.436;8.490;2023-02-15T00:16:44;1.90;99.90
14031;DHT22;7090;49.436;8.490;2023-02-15T00:19:11;1.80;99.90
14031;DHT22;7090;49.436;8.490;2023-02-15T00:21:38;1.80;99.90
14031;DHT22;7090;49.436;8.490;2023-02-15T00:24:06;1.70;99.90
14031;DHT22;7090;49.436;8.490;2023-02-15T00:26:33;1.90;99.90
14031;DHT22;7090;49.436;8.490;2023-02-15T00:28:59;1.90;99.90
14031;DHT22;7090;49.436;8.490;2023-02-15T00:31:26;1.80;99.90
14031;DHT22;7090;49.436;8.490;2023-02-15T00:33:51;1.70;99.90
14031;DHT22;7090;49.436;8.490;2023-02-15T00:36:17;1.80;99.90
14031;DHT22;7090;49.436;8.490;2023-02-15T00:38:43;1.80;99.90
14031;DHT22;7090;49.436;8.490;2023-02-15T00:41:09;1.70;99.90
14031;DHT22;7090;49.436;8.490;2023-02-15T00:43:36;1.70;99.90
14031;DHT22;7090;49.436;8.490;2023-02-15T00:46:03;1.70;99.90
14031;DHT22;7090;49.436;8.490;2023-02-15T00:48:29;1.60;99.90
14031;DHT22;7090;49.436;8.490;2023-02-15T00:50:57;1.80;99.90
14031;DHT22;7090;49.436;8.490;2023-02-15T00:53:24;1.80;99.90
14031;DHT22;7090;49.436;8.490;2023-02-15T00:55:50;1.80;99.90
14031;DHT22;7090;49.436;8.490;2023-02-15T00:58:15;1.80;99.90
14031;DHT22;7090;49.436;8.490;2023-02-15T01:00:43;1.80;99.90
14031;DHT22;7090;49.436;8.490;2023-02-15T01:03:09;1.80;99.90
14031;DHT22;7090;49.436;8.490;2023-02-15T01:05:35;1.90;99.90
14031;DHT22;7090;49.436;8.490;2023-02-15T01:08:01;1.90;99.90
14031;DHT22;7090;49.436;8.490;2023-02-15T01:10:27;1.80;99.90
14031;DHT22;7090;49.436;8.490;2023-02-15T01:12:53;1.80;99.90
14031;DHT22;7090;49.436;8.490;2023-02-15T01:15:19;1.70;99.90
14031;DHT22;7090;49.436;8.490;2023-02-15T01:17:45;1.80;99.90
14031;DHT22;7090;49.436;8.490;2023-02-15T01:20:17;1.90;99.90
14031;DHT22;7090;49.436;8.490;2023-02-15T01:22:43;1.80;99.90
14031;DHT22;7090;49.436;8.490;2023-02-15T01:25:09;1.90;99.90
14031;DHT22;7090;49.436;8.490;2023-02-15T01:27:34;2.00;99.90
14031;DHT22;7090;49.436;8.490;2023-02-15T01:30:00;1.90;99.90
14031;DHT22;7090;49.436;8.490;2023-02-15T01:32:26;2.00;99.90
14031;DHT22;7090;49.436;8.490;2023-02-15T01:34:52;2.20;99.90
14031;DHT22;7090;49.436;8.490;2023-02-15T01:37:18;2.20;99.90
14031;DHT22;7090;49.436;8.490;2023-02-15T01:39:44;2.30;99.90
14031;DHT22;7090;49.436;8.490;2023-02-15T01:42:11;2.30;99.90
14031;DHT22;7090;49.436;8.490;2023-02-15T01:47:22;2.10;99.90
14031;DHT22;7090;49.436;8.490;2023-02-15T01:49:51;2.00;99.90
14031;DHT22;7090;49.436;8.490;2023-02-15T01:52:20;1.90;99.90
14031;DHT22;7090;49.436;8.490;2023-02-15T01:54:47;1.90;99.90
14031;DHT22;7090;49.436;8.490;2023-02-15T01:57:16;1.90;99.90
14031;DHT22;7090;49.436;8.490;2023-02-15T01:59:45;1.80;99.90
14031;DHT22;7090;49.436;8.490;2023-02-15T02:02:13;1.80;99.90
14031;DHT22;7090;49.436;8.490;2023-02-15T02:04:45;1.80;99.90
14031;DHT22;7090;49.436;8.490;2023-02-15T02:07:14;1.80;99.90
14031;DHT22;7090;49.436;8.490;2023-02-15T02:09:41;1.80;99.90
14031;DHT22;7090;49.436;8.490;2023-02-15T02:12:08;1.70;99.90
14031;DHT22;7090;49.436;8.490;2023-02-15T02:14:34;1.70;99.90
14031;DHT22;7090;49.436;8.490;2023-02-15T02:17:11;1.80;99.90
14031;DHT22;7090;49.436;8.490;2023-02-15T02:22:42;1.80;99.90
14031;DHT22;7090;49.436;8.490;2023-02-15T02:27:56;1.70;99.90
14031;DHT22;7090;49.436;8.490;2023-02-15T02:47:40;1.80;99.90
14031;DHT22;7090;49.436;8.490;2023-02-15T02:50:13;1.80;99.90
14031;DHT22;7090;49.436;8.490;2023-02-15T02:52:48;1.70;99.90
14031;DHT22;7090;49.436;8.490;2023-02-15T03:00:15;1.80;99.90
14031;DHT22;7090;49.436;8.490;2023-02-15T03:02:44;1.90;99.90
14031;DHT22;7090;49.436;8.490;2023-02-15T03:05:15;1.80;99.90
14031;DHT22;7090;49.436;8.490;2023-02-15T03:07:42;1.70;99.90
14031;DHT22;7090;49.436;8.490;2023-02-15T03:10:10;1.80;99.90
14031;DHT22;7090;49.436;8.490;2023-02-15T03:12:39;1.80;99.90
14031;DHT22;7090;49.436;8.490;2023-02-15T03:15:15;1.80;99.90
14031;DHT22;7090;49.436;8.490;2023-02-15T03:17:46;1.90;99.90
14031;DHT22;7090;49.436;8.490;2023-02-15T03:20:18;1.90;99.90
14031;DHT22;7090;49.436;8.490;2023-02-15T03:22:54;1.90;99.90
14031;DHT22;7090;49.436;8.490;2023-02-15T03:25:24;1.80;99.90
14031;DHT22;7090;49.436;8.490;2023-02-15T03:27:58;1.80;99.90
14031;DHT22;7090;49.436;8.490;2023-02-15T03:30:25;1.80;99.90
14031;DHT22;7090;49.436;8.490;2023-02-15T03:32:53;1.80;99.90
14031;DHT22;7090;49.436;8.490;2023-02-15T03:35:23;1.90;99.90
14031;DHT22;7090;49.436;8.490;2023-02-15T03:38:00;2.00;99.90
14031;DHT22;7090;49.436;8.490;2023-02-15T03:45:44;2.20;99.90
14031;DHT22;7090;49.436;8.490;2023-02-15T03:48:26;2.30;99.90
14031;DHT22;7090;49.436;8.490;2023-02-15T03:50:58;2.30;99.90
14031;DHT22;7090;49.436;8.490;2023-02-15T03:53:45;2.30;99.90
14031;DHT22;7090;49.436;8.490;2023-02-15T03:56:11;2.10;99.90
14031;DHT22;7090;49.436;8.490;2023-02-15T03:58:36;2.10;99.90
14031;DHT22;7090;49.436;8.490;2023-02-15T04:01:38;2.10;99.90
14031;DHT22;7090;49.436;8.490;2023-02-15T04:04:38;2.10;99.90
14031;DHT22;7090;49.436;8.490;2023-02-15T04:07:06;1.90;99.90
14031;DHT22;7090;49.436;8.490;2023-02-15T04:09:32;2.00;99.90
14031;DHT22;7090;49.436;8.490;2023-02-15T04:12:16;2.00;99.90
14031;DHT22;7090;49.436;8.490;2023-02-15T04:14:42;2.00;99.90
14031;DHT22;7090;49.436;8.490;2023-02-15T04:17:26;2.00;99.90
14031;DHT22;7090;49.436;8.490;2023-02-15T04:19:51;2.00;99.90
14031;DHT22;7090;49.436;8.490;2023-02-15T04:22:35;1.90;99.90
14031;DHT22;7090;49.436;8.490;2023-02-15T04:25:19;1.90;99.90
14031;DHT22;7090;49.436;8.490;2023-02-15T04:27:51;1.90;99.90
14031;DHT22;7090;49.436;8.490;2023-02-15T04:30:19;1.90;99.90
14031;DHT22;7090;49.436;8.490;2023-02-15T04:32:45;1.90;99.90
14031;DHT22;7090;49.436;8.490;2023-02-15T04:35:11;1.90;99.90
14031;DHT22;7090;49.436;8.490;2023-02-15T04:37:38;2.00;99.90
14031;DHT22;7090;49.436;8.490;2023-02-15T04:40:05;2.10;99.90
14031;DHT22;7090;49.436;8.490;2023-02-15T04:42:31;2.00;99.90
14031;DHT22;7090;49.436;8.490;2023-02-15T04:44:57;2.10;99.90
14031;DHT22;7090;49.436;8.490;2023-02-15T04:47:23;2.10;99.90
14031;DHT22;7090;49.436;8.490;2023-02-15T04:49:48;2.10;99.90
14031;DHT22;7090;49.436;8.490;2023-02-15T04:52:15;2.00;99.90
14031;DHT22;7090;49.436;8.490;2023-02-15T04:54:40;2.00;99.90
14031;DHT22;7090;49.436;8.490;2023-02-15T04:57:06;2.10;99.90
14031;DHT22;7090;49.436;8.490;2023-02-15T04:59:32;2.10;99.90
14031;DHT22;7090;49.436;8.490;2023-02-15T05:01:57;2.00;99.90
14031;DHT22;7090;49.436;8.490;2023-02-15T05:04:23;2.10;99.90
14031;DHT22;7090;49.436;8.490;2023-02-15T05:06:49;2.00;99.90
14031;DHT22;7090;49.436;8.490;2023-02-15T05:09:15;2.10;99.90
14031;DHT22;7090;49.436;8.490;2023-02-15T05:11:41;2.10;99.90
14031;DHT22;7090;49.436;8.490;2023-02-15T05:14:06;2.10;99.90
14031;DHT22;7090;49.436;8.490;2023-02-15T05:16:32;2.10;99.90
14031;DHT22;7090;49.436;8.490;2023-02-15T05:18:57;2.20;99.90
14031;DHT22;7090;49.436;8.490;2023-02-15T05:21:23;2.20;99.90
14031;DHT22;7090;49.436;8.490;2023-02-15T05:23:48;2.20;99.90
14031;DHT22;7090;49.436;8.490;2023-02-15T05:26:18;2.10;99.90
14031;DHT22;7090;49.436;8.490;2023-02-15T05:29:03;2.10;99.90
14031;DHT22;7090;49.436;8.490;2023-02-15T05:31:30;2.00;99.90
14031;DHT22;7090;49.436;8.490;2023-02-15T05:33:56;2.00;99.90
14031;DHT22;7090;49.436;8.490;2023-02-15T05:36:21;2.00;99.90
14031;DHT22;7090;49.436;8.490;2023-02-15T05:38:47;2.10;99.90
14031;DHT22;7090;49.436;8.490;2023-02-15T05:41:13;2.10;99.90
14031;DHT22;7090;49.436;8.490;2023-02-15T05:43:38;2.10;99.90
14031;DHT22;7090;49.436;8.490;2023-02-15T05:46:05;2.10;99.90
14031;DHT22;7090;49.436;8.490;2023-02-15T05:48:31;2.10;99.90
14031;DHT22;7090;49.436;8.490;2023-02-15T05:51:08;2.00;99.90
14031;DHT22;7090;49.436;8.490;2023-02-15T05:53:36;2.00;99.90
14031;DHT22;7090;49.436;8.490;2023-02-15T05:56:04;2.10;99.90
14031;DHT22;7090;49.436;8.490;2023-02-15T05:58:32;2.10;99.90
14031;DHT22;7090;49.436;8.490;2023-02-15T06:00:58;2.00;99.90
14031;DHT22;7090;49.436;8.490;2023-02-15T06:03:24;2.00;99.90
14031;DHT22;7090;49.436;8.490;2023-02-15T06:05:51;2.00;99.90
14031;DHT22;7090;49.436;8.490;2023-02-15T06:08:18;1.90;99.90
14031;DHT22;7090;49.436;8.490;2023-02-15T06:10:45;2.00;99.90
14031;DHT22;7090;49.436;8.490;2023-02-15T06:13:10;2.00;99.90
14031;DHT22;7090;49.436;8.490;2023-02-15T06:15:36;2.10;99.90
14031;DHT22;7090;49.436;8.490;2023-02-15T06:21:14;2.10;99.90
14031;DHT22;7090;49.436;8.490;2023-02-15T06:23:40;2.00;99.90
14031;DHT22;7090;49.436;8.490;2023-02-15T06:26:05;2.00;99.90
14031;DHT22;7090;49.436;8.490;2023-02-15T06:28:31;2.00;99.90
14031;DHT22;7090;49.436;8.490;2023-02-15T06:30:56;2.00;99.90
14031;DHT22;7090;49.436;8.490;2023-02-15T06:33:22;2.00;99.90
14031;DHT22;7090;49.436;8.490;2023-02-15T06:35:48;2.10;99.90
14031;DHT22;7090;49.436;8.490;2023-02-15T06:38:14;2.10;99.90
14031;DHT22;7090;49.436;8.490;2023-02-15T06:40:39;2.10;99.90
14031;DHT22;7090;49.436;8.490;2023-02-15T06:43:05;2.20;99.90
14031;DHT22;7090;49.436;8.490;2023-02-15T06:45:30;2.10;99.90
14031;DHT22;7090;49.436;8.490;2023-02-15T06:47:56;2.20;99.90
14031;DHT22;7090;49.436;8.490;2023-02-15T06:50:21;2.20;99.90
14031;DHT22;7090;49.436;8.490;2023-02-15T06:52:47;2.20;99.90
14031;DHT22;7090;49.436;8.490;2023-02-15T06:55:13;2.20;99.90
14031;DHT22;7090;49.436;8.490;2023-02-15T06:57:38;2.10;99.90
14031;DHT22;7090;49.436;8.490;2023-02-15T07:00:04;2.10;99.90
14031;DHT22;7090;49.436;8.490;2023-02-15T07:02:31;2.10;99.90
14031;DHT22;7090;49.436;8.490;2023-02-15T07:04:57;2.10;99.90
14031;DHT22;7090;49.436;8.490;2023-02-15T07:07:22;2.10;99.90
14031;DHT22;7090;49.436;8.490;2023-02-15T07:09:48;2.10;99.90
14031;DHT22;7090;49.436;8.490;2023-02-15T07:12:14;2.00;99.90
14031;DHT22;7090;49.436;8.490;2023-02-15T07:14:58;2.00;99.90
14031;DHT22;7090;49.436;8.490;2023-02-15T07:17:24;1.90;99.90
14031;DHT22;7090;49.436;8.490;2023-02-15T07:19:54;1.90;99.90
14031;DHT22;7090;49.436;8.490;2023-02-15T07:22:19;1.90;99.90
14031;DHT22;7090;49.436;8.490;2023-02-15T07:24:45;1.90;99.90
14031;DHT22;7090;49.436;8.490;2023-02-15T07:27:10;1.90;99.90
14031;DHT22;7090;49.436;8.490;2023-02-15T07:29:36;1.90;99.90
14031;DHT22;7090;49.436;8.490;2023-02-15T07:32:01;2.00;99.90
14031;DHT22;7090;49.436;8.490;2023-02-15T07:34:27;2.00;99.90
14031;DHT22;7090;49.436;8.490;2023-02-15T07:36:53;2.00;99.90
14031;DHT22;7090;49.436;8.490;2023-02-15T07:39:19;1.90;99.90
14031;DHT22;7090;49.436;8.490;2023-02-15T07:41:44;2.00;99.90
14031;DHT22;7090;49.436;8.490;2023-02-15T07:44:14;2.00;99.90
14031;DHT22;7090;49.436;8.490;2023-02-15T07:46:40;2.00;99.90
14031;DHT22;7090;49.436;8.490;2023-02-15T07:49:06;2.00;99.90
14031;DHT22;7090;49.436;8.490;2023-02-15T07:51:31;2.00;99.90
14031;DHT22;7090;49.436;8.490;2023-02-15T07:53:57;2.00;99.90
14031;DHT22;7090;49.436;8.490;2023-02-15T07:56:23;1.90;99.90
14031;DHT22;7090;49.436;8.490;2023-02-15T07:58:48;1.80;99.90
14031;DHT22;7090;49.436;8.490;2023-02-15T08:01:18;1.80;99.90
14031;DHT22;7090;49.436;8.490;2023-02-15T08:03:44;1.90;99.90
14031;DHT22;7090;49.436;8.490;2023-02-15T08:06:10;1.90;99.90
14031;DHT22;7090;49.436;8.490;2023-02-15T08:08:38;1.90;99.90
14031;DHT22;7090;49.436;8.490;2023-02-15T08:11:28;1.80;99.90
14031;DHT22;7090;49.436;8.490;2023-02-15T08:19:15;1.80;99.90
14031;DHT22;7090;49.436;8.490;2023-02-15T08:21:44;1.70;99.90
14031;DHT22;7090;49.436;8.490;2023-02-15T08:24:14;1.60;99.90
14031;DHT22;7090;49.436;8.490;2023-02-15T08:26:40;1.60;99.90
14031;DHT22;7090;49.436;8.490;2023-02-15T08:29:07;1.70;99.90
14031;DHT22;7090;49.436;8.490;2023-02-15T08:31:34;1.70;99.90
14031;DHT22;7090;49.436;8.490;2023-02-15T08:33:59;1.70;99.90
14031;DHT22;7090;49.436;8.490;2023-02-15T08:36:30;1.70;99.90
14031;DHT22;7090;49.436;8.490;2023-02-15T08:39:02;1.80;99.90
14031;DHT22;7090;49.436;8.490;2023-02-15T08:41:31;1.80;99.90
14031;DHT22;7090;49.436;8.490;2023-02-15T08:43:59;1.90;99.90
14031;DHT22;7090;49.436;8.490;2023-02-15T08:46:27;1.80;99.90
14031;DHT22;7090;49.436;8.490;2023-02-15T08:48:54;1.80;99.90
14031;DHT22;7090;49.436;8.490;2023-02-15T08:51:25;1.90;99.90
14031;DHT22;7090;49.436;8.490;2023-02-15T08:53:54;1.90;99.90
14031;DHT22;7090;49.436;8.490;2023-02-15T08:56:23;1.80;99.90
14031;DHT22;7090;49.436;8.490;2023-02-15T08:58:49;1.80;99.90
14031;DHT22;7090;49.436;8.490;2023-02-15T09:01:20;1.80;99.90
14031;DHT22;7090;49.436;8.490;2023-02-15T09:03:48;1.70;99.90
14031;DHT22;7090;49.436;8.490;2023-02-15T09:06:16;1.60;99.90
14031;DHT22;7090;49.436;8.490;2023-02-15T09:08:41;1.60;99.90
14031;DHT22;7090;49.436;8.490;2023-02-15T09:13:34;1.60;99.90
14031;DHT22;7090;49.436;8.490;2023-02-15T09:16:01;1.60;99.90
14031;DHT22;7090;49.436;8.490;2023-02-15T09:18:27;1.60;99.90
14031;DHT22;7090;49.436;8.490;2023-02-15T09:20:53;1.50;99.90
14031;DHT22;7090;49.436;8.490;2023-02-15T09:23:20;1.50;99.90
14031;DHT22;7090;49.436;8.490;2023-02-15T09:25:46;1.50;99.90
14031;DHT22;7090;49.436;8.490;2023-02-15T09:28:11;1.50;99.90
14031;DHT22;7090;49.436;8.490;2023-02-15T09:30:37;1.50;99.90
14031;DHT22;7090;49.436;8.490;2023-02-15T09:33:03;1.50;99.90
14031;DHT22;7090;49.436;8.490;2023-02-15T09:35:28;1.50;99.90
14031;DHT22;7090;49.436;8.490;2023-02-15T09:37:54;1.50;99.90
14031;DHT22;7090;49.436;8.490;2023-02-15T09:40:19;1.50;99.90
14031;DHT22;7090;49.436;8.490;2023-02-15T09:42:52;1.50;99.90
14031;DHT22;7090;49.436;8.490;2023-02-15T09:48:24;1.50;99.90
14031;DHT22;7090;49.436;8.490;2023-02-15T09:51:05;1.50;99.90
14031;DHT22;7090;49.436;8.490;2023-02-15T09:56:39;1.40;99.90
14031;DHT22;7090;49.436;8.490;2023-02-15T09:59:42;1.50;99.90
14031;DHT22;7090;49.436;8.490;2023-02-15T10:08:57;1.40;99.90
14031;DHT22;7090;49.436;8.490;2023-02-15T10:22:30;1.50;99.90
14031;DHT22;7090;49.436;8.490;2023-02-15T10:27:31;1.50;99.90
14031;DHT22;7090;49.436;8.490;2023-02-15T10:32:30;1.70;99.90
14031;DHT22;7090;49.436;8.490;2023-02-15T10:43:40;1.70;99.90
14031;DHT22;7090;49.436;8.490;2023-02-15T10:46:15;1.70;99.90
14031;DHT22;7090;49.436;8.490;2023-02-15T10:57:20;1.60;99.90
14031;DHT22;7090;49.436;8.490;2023-02-15T10:59:54;1.70;99.90
14031;DHT22;7090;49.436;8.490;2023-02-15T11:02:27;1.80;99.90
14031;DHT22;7090;49.436;8.490;2023-02-15T11:07:38;1.80;99.90
14031;DHT22;7090;49.436;8.490;2023-02-15T11:12:49;1.90;99.90
14031;DHT22;7090;49.436;8.490;2023-02-15T11:18:00;1.90;99.90
14031;DHT22;7090;49.436;8.490;2023-02-15T11:20:54;1.90;99.90
14031;DHT22;7090;49.436;8.490;2023-02-15T11:23:21;2.00;99.90
14031;DHT22;7090;49.436;8.490;2023-02-15T11:26:01;2.00;99.90
14031;DHT22;7090;49.436;8.490;2023-02-15T11:28:34;2.10;99.90
14031;DHT22;7090;49.436;8.490;2023-02-15T11:31:18;2.00;99.90
14031;DHT22;7090;49.436;8.490;2023-02-15T11:33:47;2.10;99.90
14031;DHT22;7090;49.436;8.490;2023-02-15T11:36:37;2.10;99.90
14031;DHT22;7090;49.436;8.490;2023-02-15T11:39:09;2.10;99.90
14031;DHT22;7090;49.436;8.490;2023-02-15T11:41:40;2.20;99.90
14031;DHT22;7090;49.436;8.490;2023-02-15T11:45:16;2.20;99.90
14031;DHT22;7090;49.436;8.490;2023-02-15T11:47:11;2.20;99.90
14031;DHT22;7090;49.436;8.490;2023-02-15T11:49:37;2.20;99.90
14031;DHT22;7090;49.436;8.490;2023-02-15T11:52:10;2.30;99.90
14031;DHT22;7090;49.436;8.490;2023-02-15T11:54:41;2.30;99.90
14031;DHT22;7090;49.436;8.490;2023-02-15T11:57:23;2.40;99.90
14031;DHT22;7090;49.436;8.490;2023-02-15T12:02:27;2.30;99.90
14031;DHT22;7090;49.436;8.490;2023-02-15T12:05:13;2.20;99.90
14031;DHT22;7090;49.436;8.490;2023-02-15T12:07:55;2.30;99.90
14031;DHT22;7090;49.436;8.490;2023-02-15T12:10:38;2.30;99.90
14031;DHT22;7090;49.436;8.490;2023-02-15T12:13:16;2.40;99.90
14031;DHT22;7090;49.436;8.490;2023-02-15T12:15:45;2.50;99.90
14031;DHT22;7090;49.436;8.490;2023-02-15T12:20:51;2.50;99.90
14031;DHT22;7090;49.436;8.490;2023-02-15T12:23:17;2.60;99.90
14031;DHT22;7090;49.436;8.490;2023-02-15T12:25:53;2.70;99.90
14031;DHT22;7090;49.436;8.490;2023-02-15T12:31:00;2.70;99.90
14031;DHT22;7090;49.436;8.490;2023-02-15T12:36:10;2.50;99.90
14031;DHT22;7090;49.436;8.490;2023-02-15T12:38:37;2.60;99.90
14031;DHT22;7090;49.436;8.490;2023-02-15T12:41:05;2.80;99.90
14031;DHT22;7090;49.436;8.490;2023-02-15T12:43:45;2.90;99.90
14031;DHT22;7090;49.436;8.490;2023-02-15T12:46:23;3.00;99.90
14031;DHT22;7090;49.436;8.490;2023-02-15T12:49:18;2.90;99.90
14031;DHT22;7090;49.436;8.490;2023-02-15T12:56:51;3.00;99.90
14031;DHT22;7090;49.436;8.490;2023-02-15T12:59:18;2.90;99.90
14031;DHT22;7090;49.436;8.490;2023-02-15T13:01:48;2.70;99.90
14031;DHT22;7090;49.436;8.490;2023-02-15T13:04:23;2.70;99.90
14031;DHT22;7090;49.436;8.490;2023-02-15T13:06:52;2.80;99.90
14031;DHT22;7090;49.436;8.490;2023-02-15T13:11:46;2.90;99.90
14031;DHT22;7090;49.436;8.490;2023-02-15T13:14:25;2.90;99.90
14031;DHT22;7090;49.436;8.490;2023-02-15T13:16:58;2.90;99.90
14031;DHT22;7090;49.436;8.490;2023-02-15T13:19:35;2.90;99.90
14031;DHT22;7090;49.436;8.490;2023-02-15T13:22:06;2.90;99.90
14031;DHT22;7090;49.436;8.490;2023-02-15T13:24:39;2.90;99.90
14031;DHT22;7090;49.436;8.490;2023-02-15T13:27:13;3.00;99.90
14031;DHT22;7090;49.436;8.490;2023-02-15T13:29:43;3.00;99.90
14031;DHT22;7090;49.436;8.490;2023-02-15T13:32:30;3.00;99.90
14031;DHT22;7090;49.436;8.490;2023-02-15T13:35:00;3.20;99.90
14031;DHT22;7090;49.436;8.490;2023-02-15T13:43:02;3.10;99.90
14031;DHT22;7090;49.436;8.490;2023-02-15T13:45:43;3.20;99.90
14031;DHT22;7090;49.436;8.490;2023-02-15T14:01:56;3.80;99.90
14031;DHT22;7090;49.436;8.490;2023-02-15T14:07:30;3.80;99.90
14031;DHT22;7090;49.436;8.490;2023-02-15T14:31:43;4.30;99.90
14031;DHT22;7090;49.436;8.490;2023-02-15T14:34:24;4.10;99.90
14031;DHT22;7090;49.436;8.490;2023-02-15T14:36:51;4.30;99.90
14031;DHT22;7090;49.436;8.490;2023-02-15T14:39:24;4.30;99.90
14031;DHT22;7090;49.436;8.490;2023-02-15T14:45:21;4.10;99.90
14031;DHT22;7090;49.436;8.490;2023-02-15T14:47:55;4.10;99.90
14031;DHT22;7090;49.436;8.490;2023-02-15T14:50:36;4.30;99.90
14031;DHT22;7090;49.436;8.490;2023-02-15T14:58:57;4.40;99.90
14031;DHT22;7090;49.436;8.490;2023-02-15T15:01:37;4.60;99.90
14031;DHT22;7090;49.436;8.490;2023-02-15T15:04:09;4.80;99.90
14031;DHT22;7090;49.436;8.490;2023-02-15T15:06:40;5.00;99.90
14031;DHT22;7090;49.436;8.490;2023-02-15T15:09:25;4.90;99.90
14031;DHT22;7090;49.436;8.490;2023-02-15T15:11:53;4.90;99.90
14031;DHT22;7090;49.436;8.490;2023-02-15T15:17:01;5.00;99.90
14031;DHT22;7090;49.436;8.490;2023-02-15T15:22:21;4.90;99.90
14031;DHT22;7090;49.436;8.490;2023-02-15T15:27:51;5.00;99.90
14031;DHT22;7090;49.436;8.490;2023-02-15T15:33:23;5.30;99.90
14031;DHT22;7090;49.436;8.490;2023-02-15T15:38:47;5.20;99.90
14031;DHT22;7090;49.436;8.490;2023-02-15T15:41:42;5.00;99.90
14031;DHT22;7090;49.436;8.490;2023-02-15T15:47:17;5.00;99.90
14031;DHT22;7090;49.436;8.490;2023-02-15T15:49:46;5.20;99.90
14031;DHT22;7090;49.436;8.490;2023-02-15T15:52:15;5.20;99.90
14031;DHT22;7090;49.436;8.490;2023-02-15T15:54:42;5.00;99.90
14031;DHT22;7090;49.436;8.490;2023-02-15T15:57:39;4.80;99.90
14031;DHT22;7090;49.436;8.490;2023-02-15T16:00:41;4.70;99.90
14031;DHT22;7090;49.436;8.490;2023-02-15T16:03:25;4.60;99.90
14031;DHT22;7090;49.436;8.490;2023-02-15T16:05:51;4.30;99.90
14031;DHT22;7090;49.436;8.490;2023-02-15T16:08:38;4.20;99.90
14031;DHT22;7090;49.436;8.490;2023-02-15T16:11:33;4.10;99.90
14031;DHT22;7090;49.436;8.490;2023-02-15T16:13:59;4.00;99.90
14031;DHT22;7090;49.436;8.490;2023-02-15T16:16:28;3.90;99.90
14031;DHT22;7090;49.436;8.490;2023-02-15T16:18:55;3.90;99.90
14031;DHT22;7090;49.436;8.490;2023-02-15T16:21:29;3.80;99.90
14031;DHT22;7090;49.436;8.490;2023-02-15T16:24:22;3.60;99.90
14031;DHT22;7090;49.436;8.490;2023-02-15T16:29:30;3.30;99.90
14031;DHT22;7090;49.436;8.490;2023-02-15T16:32:14;3.20;99.90
14031;DHT22;7090;49.436;8.490;2023-02-15T16:34:51;3.10;99.90
14031;DHT22;7090;49.436;8.490;2023-02-15T16:37:20;3.10;99.90
14031;DHT22;7090;49.436;8.490;2023-02-15T16:39:49;2.90;99.90
14031;DHT22;7090;49.436;8.490;2023-02-15T16:42:15;2.90;99.90
14031;DHT22;7090;49.436;8.490;2023-02-15T16:44:47;2.80;99.90
14031;DHT22;7090;49.436;8.490;2023-02-15T16:47:23;2.90;99.90
14031;DHT22;7090;49.436;8.490;2023-02-15T16:49:52;2.70;99.90
14031;DHT22;7090;49.436;8.490;2023-02-15T16:52:25;2.70;99.90
14031;DHT22;7090;49.436;8.490;2023-02-15T16:54:57;2.60;99.90
14031;DHT22;7090;49.436;8.490;2023-02-15T16:57:28;2.60;99.90
14031;DHT22;7090;49.436;8.490;2023-02-15T16:59:59;2.50;99.90
14031;DHT22;7090;49.436;8.490;2023-02-15T17:02:28;2.40;99.90
14031;DHT22;7090;49.436;8.490;2023-02-15T17:05:07;2.40;99.90
14031;DHT22;7090;49.436;8.490;2023-02-15T17:07:33;2.40;99.90
14031;DHT22;7090;49.436;8.490;2023-02-15T17:09:59;2.30;99.90
14031;DHT22;7090;49.436;8.490;2023-02-15T17:12:45;2.30;99.90
14031;DHT22;7090;49.436;8.490;2023-02-15T17:15:36;2.20;99.90
14031;DHT22;7090;49.436;8.490;2023-02-15T17:18:05;2.20;99.90
14031;DHT22;7090;49.436;8.490;2023-02-15T17:23:58;2.10;99.90
14031;DHT22;7090;49.436;8.490;2023-02-15T17:26:36;2.10;99.90
14031;DHT22;7090;49.436;8.490;2023-02-15T17:29:20;2.10;99.90
14031;DHT22;7090;49.436;8.490;2023-02-15T17:31:49;2.00;99.90
14031;DHT22;7090;49.436;8.490;2023-02-15T17:37:13;1.70;99.90
14031;DHT22;7090;49.436;8.490;2023-02-15T17:39:38;1.70;99.90
14031;DHT22;7090;49.436;8.490;2023-02-15T17:42:06;1.70;99.90
14031;DHT22;7090;49.436;8.490;2023-02-15T17:44:31;1.50;99.90
14031;DHT22;7090;49.436;8.490;2023-02-15T17:46:57;1.60;99.90
14031;DHT22;7090;49.436;8.490;2023-02-15T17:49:24;1.60;99.90
14031;DHT22;7090;49.436;8.490;2023-02-15T17:51:52;1.60;99.90
14031;DHT22;7090;49.436;8.490;2023-02-15T17:54:17;1.60;99.90
14031;DHT22;7090;49.436;8.490;2023-02-15T17:57:01;1.50;99.90
14031;DHT22;7090;49.436;8.490;2023-02-15T17:59:30;1.50;99.90
14031;DHT22;7090;49.436;8.490;2023-02-15T18:01:56;1.50;99.90
14031;DHT22;7090;49.436;8.490;2023-02-15T18:04:40;1.40;99.90
14031;DHT22;7090;49.436;8.490;2023-02-15T18:07:24;1.40;99.90
14031;DHT22;7090;49.436;8.490;2023-02-15T18:10:17;1.30;99.90
14031;DHT22;7090;49.436;8.490;2023-02-15T18:13:02;1.20;99.90
14031;DHT22;7090;49.436;8.490;2023-02-15T18:15:28;1.20;99.90
14031;DHT22;7090;49.436;8.490;2023-02-15T18:17:54;1.20;99.90
14031;DHT22;7090;49.436;8.490;2023-02-15T18:20:32;1.20;99.90
14031;DHT22;7090;49.436;8.490;2023-02-15T18:22:59;1.20;99.90
14031;DHT22;7090;49.436;8.490;2023-02-15T18:25:26;1.20;99.90
14031;DHT22;7090;49.436;8.490;2023-02-15T18:27:52;1.20;99.90
14031;DHT22;7090;49.436;8.490;2023-02-15T18:30:20;1.10;99.90
14031;DHT22;7090;49.436;8.490;2023-02-15T18:32:48;1.20;99.90
14031;DHT22;7090;49.436;8.490;2023-02-15T18:35:20;1.20;99.90
14031;DHT22;7090;49.436;8.490;2023-02-15T18:37:47;1.10;99.90
14031;DHT22;7090;49.436;8.490;2023-02-15T18:40:15;1.00;99.90
14031;DHT22;7090;49.436;8.490;2023-02-15T18:42:41;1.00;99.90
14031;DHT22;7090;49.436;8.490;2023-02-15T18:47:44;1.20;99.90
14031;DHT22;7090;49.436;8.490;2023-02-15T18:50:11;1.10;99.90
14031;DHT22;7090;49.436;8.490;2023-02-15T18:52:38;1.10;99.90
14031;DHT22;7090;49.436;8.490;2023-02-15T18:55:15;1.00;99.90
14031;DHT22;7090;49.436;8.490;2023-02-15T18:57:41;0.90;99.90
14031;DHT22;7090;49.436;8.490;2023-02-15T19:00:14;0.80;99.90
14031;DHT22;7090;49.436;8.490;2023-02-15T19:02:41;0.80;99.90
14031;DHT22;7090;49.436;8.490;2023-02-15T19:05:07;0.90;99.90
14031;DHT22;7090;49.436;8.490;2023-02-15T19:07:33;0.90;99.90
14031;DHT22;7090;49.436;8.490;2023-02-15T19:10:00;0.90;99.90
14031;DHT22;7090;49.436;8.490;2023-02-15T19:12:29;0.90;99.90
14031;DHT22;7090;49.436;8.490;2023-02-15T19:14:55;0.80;99.90
14031;DHT22;7090;49.436;8.490;2023-02-15T19:17:22;0.70;99.90
14031;DHT22;7090;49.436;8.490;2023-02-15T19:19:50;0.70;99.90
14031;DHT22;7090;49.436;8.490;2023-02-15T19:22:24;0.70;99.90
14031;DHT22;7090;49.436;8.490;2023-02-15T19:24:51;0.70;99.90
14031;DHT22;7090;49.436;8.490;2023-02-15T19:29:43;0.90;99.90
14031;DHT22;7090;49.436;8.490;2023-02-15T19:32:10;0.90;99.90
14031;DHT22;7090;49.436;8.490;2023-02-15T19:34:36;0.90;99.90
14031;DHT22;7090;49.436;8.490;2023-02-15T19:37:01;0.80;99.90
14031;DHT22;7090;49.436;8.490;2023-02-15T19:39:37;0.90;99.90
14031;DHT22;7090;49.436;8.490;2023-02-15T19:42:04;0.70;99.90
14031;DHT22;7090;49.436;8.490;2023-02-15T19:44:30;0.60;99.90
14031;DHT22;7090;49.436;8.490;2023-02-15T19:46:56;0.70;99.90